This is the latest recevied weather packets stored in our database for station/object WX2NJ. If no packets are shown the sender has not sent any weather packets the latest 10 day(s).
| Time | Temp. | Humidity | Pressure | Rain* | Wind** | Luminosity | Snow |
|---|---|---|---|---|---|---|---|
| 1777666187 | 15.56° C | 58% | 1014.5 hPa | 0 mm | - | 486 W/m² | - |
| 1777665885 | 16.11° C | 56% | 1014.6 hPa | 0 mm | - | 531 W/m² | - |
| 1777665582 | 16.11° C | 56% | 1015 hPa | 0 mm | - | 350 W/m² | - |
| 1777665278 | 16.67° C | 54% | 1015 hPa | 0 mm | - | 530 W/m² | - |
| 1777664974 | 16.11° C | 55% | 1014.7 hPa | 0 mm | - | 539 W/m² | - |
| 1777664670 | 16.11° C | 56% | 1015 hPa | 0 mm | - | 609 W/m² | - |
| 1777664366 | 16.11° C | 54% | 1015 hPa | 0 mm | - | 442 W/m² | - |
| 1777664064 | 16.11° C | 53% | 1015 hPa | 0 mm | - | 554 W/m² | - |
| 1777663762 | 16.11° C | 52% | 1015.2 hPa | 0 mm | - | 560 W/m² | - |
| 1777663459 | 15.56° C | 52% | 1015.2 hPa | 0 mm | - | 574 W/m² | - |
| 1777663156 | 16.11° C | 50% | 1015.3 hPa | 0 mm | - | 577 W/m² | - |
| 1777662853 | 16.11° C | 54% | 1015.4 hPa | 0 mm | - | 650 W/m² | - |
| 1777662550 | 15.56° C | 53% | 1015.6 hPa | 0 mm | - | 484 W/m² | - |
| 1777662246 | 16.11° C | 53% | 1015.5 hPa | 0 mm | - | 624 W/m² | - |
| 1777661941 | 16.11° C | 53% | 1015.3 hPa | 0 mm | - | 575 W/m² | - |
| 1777661637 | 15.56° C | 54% | 1015.6 hPa | 0 mm | - | 632 W/m² | - |
| 1777661333 | 15.56° C | 54% | 1015.7 hPa | 0 mm | - | 728 W/m² | - |
| 1777661029 | 16.11° C | 53% | 1015.6 hPa | 0 mm | - | 696 W/m² | - |
| 1777660724 | 15° C | 55% | 1015.6 hPa | 0 mm | - | 771 W/m² | - |
| 1777660422 | 15.56° C | 54% | 1015.7 hPa | 0 mm | - | 783 W/m² | - |
| 1777660118 | 15.56° C | 56% | 1016.1 hPa | 0 mm | - | 661 W/m² | - |
| 1777659815 | 15.56° C | 53% | 1016 hPa | 0 mm | - | 663 W/m² | - |
| 1777659512 | 15.56° C | 53% | 1015.9 hPa | 0 mm | - | 719 W/m² | - |
| 1777659209 | 15° C | 56% | 1015.9 hPa | 0 mm | - | 716 W/m² | - |
| 1777658906 | 16.67° C | 54% | 1015.7 hPa | 0 mm | - | 721 W/m² | - |
* Rain latest hour (hover to see other rain measurements)
** Current wind speed in m/s (hover to see current wind gust speed)